Davison Army Air Field
KDAA : now visible

Airfield :











YOU CAN JOIN US ON...

 
LOGIN :

Register | Disclaimer

   EN    FR    IT 

 









Legend :    VFR   Marginal VFR   IFR   Intensive IFR   Very Intensive IFR
Visi :
Ceiling :
>= 8 km
>= 3000ft
5 to 8 km
1000 to 3000 ft
1500m to 5 km
500 to 1000 ft
800 to 1500m
200 to 500 ft
< 800m
< 200 ft
Symbols :   Thunderstorms  Fog  Heavy snow  Heavy precipitations  Wind > 20 kt






- Airport Elevation : 73 ft


KDAA - Davison Army Air Field

CURRENT METAR :
  • 200556Z AUTO 00000KT 10SM CLR 16/15 A2980 RMK AO2 SLP094 T01580145 10237 20151 57009 $

EXPIRED METARs :
  • 200456Z AUTO 00000KT 10SM CLR 16/15 A2982 RMK AO2 SLP101 T01550145 402950151 $
  • 200356Z AUTO 00000KT 10SM CLR 16/15 A2982 RMK AO2 SLP101 T01640146 $

TAF TAF KDAA
Valid from the 19 at 20:00 until the 21 at 02:00 UTC


192000Z 1920/2102 28012G20KT 9999 FEW060 QNH2972INS
BECMG 1922/1923 VRB06KT 9999 SKC QNH2973INS
BECMG 2018/2019 23012G18KT 9999 SCT140 OVC200 QNH2985INS
BECMG 2020/2021 20006KT 9999 FEW150 FEW210 QNH2983INS
BECMG 2100/2101 19006KT 9999 FEW240 QNH2986INS TX31/2020Z TN17/2008Z LAST NO AMDS AFT 2002 NEXT 2012
KZDC FIR / North America



MET'MAP, your aeronautical weather chart ! - Copyright ORBIFLY December 2007 - Disclaimer

ORBIFLY MET'MAP TEAM :

Programming & Development : Alexandra Zaïnal
Original concept : Baudouin d'Aumeries
Technical & hardware support : Manuel Goepfert
Assistance : Marc-Olivier Méhu

Contact : metmap@orbifly.com




SOURCES & CREDITS :

   NOAA       Earth
Advisory